OMAD/AZI METAR and TAF weather

Enter ICAO airport designator
Station Type Date Time Source
OMAD METAR 2022/01/25 06:00 UTC NOAA

OMAD 250600Z 31008KT 9999 FEW025 21/15 Q1019 NOSIG


Station Type Date Time Source
OMAD Decoded METAR 2022/01/25 06:00 UTC NOAA

Abu Dhabi Bateen Airport, United Arab Emirates (OMAD) 24-26N 054-28E 3M
Jan 25, 2022 - 01:00 AM EST / 2022.01.25 0600 UTC
Wind: from the NW (310 degrees) at 9 MPH (8 KT):0
Visibility: greater than 7 mile(s):0
Sky conditions: mostly clear
Temperature: 69 F (21 C)
Dew Point: 59 F (15 C)
Relative Humidity: 68%
Pressure (altimeter): 30.09 in. Hg (1019 hPa)
ob: OMAD 250600Z 31008KT 9999 FEW025 21/15 Q1019 NOSIG
cycle: 6

Station Type Date Time Source
OMAD TAF 2022/01/25 06:06 UTC NOAA

TAF TAF OMAD 250500Z 2506/2612 32010KT 8000 FEW035
BECMG 2518/2520 VRB02KT PROB30 2601/2605 3000 BR
BECMG 2607/2609 33008KT

Example: see airport list